EW5383 Weather Reports


Display with metric or nautical units.
time (UTC)temp
F
wind
direction
speed
MPH
gust
MPH
rain 1hr
in
rain 24hr
in
rain mn
in
humidity
%
barometer
mb
20210624201619 77 316 0.0 6.0 0.60 0.70 0.62 1 1017.6
20210624200044 85 300 2.0 5.0 0.39 0.49 0.41 1 1017.3
20210624194549 88 257 1.0 3.0 0.00 0.10 0.02 10 1017.1
20210624193120 89 290 0.0 2.0 0.00 0.10 0.02 10 1017.4
20210624191533 90 292 0.0 2.0 0.00 0.10 0.02 21 1017.5
20210624190022 91 77 0.0 1.0 0.00 0.10 0.02 29 1017.4
20210624184522 91 127 1.0 4.0 0.00 0.10 0.02 29 1017.5
20210624183016 92 98 2.0 5.0 0.00 0.10 0.02 29 1017.6
20210624181507 92 105 0.0 4.0 0.00 0.10 0.02 27 1018.1
20210624180005 92 321 0.0 5.0 0.00 0.10 0.02 27 1018.5
20210624174649 91 84 1.0 5.0 0.00 0.10 0.02 24 1018.7
20210624173222 90 141 0.0 4.0 0.00 0.10 0.02 20 1019.1
20210624171726 90 142 1.0 6.0 0.00 0.10 0.02 19 1019.3
20210624170223 90 67 1.0 3.0 0.00 0.10 0.02 14 1019.6
20210624164606 90 86 2.0 5.0 0.00 0.10 0.02 12 1019.8
20210624163119 90 155 0.0 5.0 0.00 0.10 0.02 2 1019.9
20210624161552 89 120 1.0 4.0 0.00 0.10 0.02 1 1020.0
20210624160053 88 136 1.0 4.0 0.00 0.10 0.02 1 1020.2
20210624154528 88 106 1.0 4.0 0.00 0.10 0.02 1 1020.1
20210624153046 87 98 1.0 4.0 0.00 0.10 0.02 1 1020.2
20210624151515 87 98 1.0 2.0 0.00 0.10 0.02 1 1020.3
20210624150013 86 77 0.0 4.0 0.00 0.10 0.02 1 1020.1
20210624144508 86 34 0.0 2.0 0.00 0.10 0.02 1 1020.2
20210624143123 85 108 0.0 3.0 0.00 0.10 0.02 1 1020.1
20210624141715 84 85 1.0 4.0 0.00 0.10 0.02 1 1020.1
20210624140156 83 97 1.0 3.0 0.00 0.10 0.02 1 1020.0
20210624134711 84 102 0.0 1.0 0.00 0.10 0.02 1 1019.9
20210624133138 82 110 0.0 2.0 0.00 0.10 0.02 1 1020.0
20210624131601 82 101 0.0 1.0 0.00 0.10 0.02 1 1019.9
20210624130042 80 101 0.0 0.0 0.00 0.10 0.02 1 1019.9
20210624124553 79 102 0.0 0.0 0.00 0.10 0.02 1 1019.9
20210624123050 78 102 0.0 0.0 0.00 0.10 0.02 1 1019.8
20210624121621 77 102 0.0 0.0 0.00 0.10 0.02 1 1019.7
20210624120026 77 153 0.0 0.0 0.00 0.10 0.02 1 1019.6
20210624114516 74 153 0.0 0.0 0.00 0.10 0.02 1 1019.5
20210624113042 72 153 0.0 0.0 0.00 0.10 0.02 1 1019.5
20210624111528 71 153 0.0 0.0 0.00 0.10 0.02 1 1019.4
20210624110209 71 153 0.0 0.0 0.00 0.10 0.02 1 1019.0
20210624104826 71 153 0.0 0.0 0.00 0.10 0.02 1 1018.8
20210624103155 71 153 0.0 0.0 0.00 0.10 0.02 1 1018.5
20210624101603 71 153 0.0 0.0 0.00 0.10 0.02 1 1018.4
20210624100103 71 153 0.0 0.0 0.00 0.10 0.02 1 1018.3
20210624094548 72 85 0.0 0.0 0.00 0.10 0.02 1 1018.2
20210624093127 72 86 0.0 3.0 0.00 0.10 0.02 1 1018.0
20210624091639 72 65 0.0 3.0 0.00 0.10 0.02 1 1017.9
20210624090051 72 150 0.0 3.0 0.00 0.10 0.02 1 1017.8
20210624084520 72 88 0.0 1.0 0.00 0.10 0.02 1 1017.8
20210624083016 71 118 0.0 0.0 0.00 0.10 0.02 1 1017.8
20210624081512 72 118 0.0 0.0 0.00 0.10 0.02 1 1018.0
20210624080035 72 76 0.0 0.0 0.00 0.10 0.02 1 1017.8
20210624073155 72 111 0.0 0.0 0.00 0.10 0.02 1 1018.1
20210624071621 72 111 0.0 0.0 0.01 0.10 0.02 1 1018.2
20210624070049 72 111 0.0 0.0 0.01 0.10 0.02 1 1018.1
20210624064610 72 110 0.0 0.0 0.01 0.10 0.02 1 1017.8
20210624063054 71 111 0.0 0.0 0.01 0.10 0.02 1 1018.0
20210624061605 71 111 0.0 0.0 0.00 0.09 0.01 1 1018.2
20210624060048 71 111 0.0 1.0 0.00 0.09 0.01 1 1018.4
20210624054547 72 94 0.0 0.0 0.00 0.09 0.01 1 1018.4
20210624053032 72 94 0.0 0.0 0.00 0.09 0.01 1 1018.6
20210624051527 71 94 0.0 0.0 0.01 0.09 0.01 1 1018.8
20210624050013 71 94 0.0 0.0 0.01 0.09 0.01 1 1019.2
20210624044508 71 96 0.0 0.0 0.02 0.09 0.01 1 1019.5
20210624043003 71 96 0.0 0.0 0.02 0.09 0.01 1 1019.8
20210624041608 71 96 0.0 0.0 0.02 0.08 0.00 1 1019.9
20210624040216 71 96 0.0 0.0 0.03 0.08 0.00 1 1020.2
20210624034627 71 296 0.0 0.0 0.03 0.07 0.07 1 1019.9
20210624033106 71 296 0.0 0.0 0.07 0.07 0.07 1 1019.7
20210624031705 72 281 0.0 1.0 0.06 0.06 0.06 1 1019.7
20210624030116 73 312 0.0 0.0 0.05 0.05 0.05 1 1019.4
20210624024553 74 321 0.0 0.0 0.03 0.03 0.03 1 1020.2
20210624023111 77 314 0.0 2.0 0.00 0.00 0.00 1 1020.8
20210624021555 78 312 0.0 0.0 0.00 0.00 0.00 1 1021.0
20210624020114 78 93 0.0 2.0 0.00 0.00 0.00 1 1020.1
20210624014520 79 82 0.0 4.0 0.00 0.00 0.00 1 1020.1
20210624013021 80 83 0.0 3.0 0.00 0.00 0.00 1 1019.7
20210624011552 81 90 0.0 3.0 0.00 0.00 0.00 1 1019.2
20210624010015 81 69 0.0 1.0 0.00 0.00 0.00 1 1019.1
20210624004503 82 108 0.0 2.0 0.00 0.00 0.00 1 1019.2
20210624003201 82 104 0.0 4.0 0.00 0.00 0.00 1 1019.3
20210624001648 83 109 0.0 3.0 0.00 0.00 0.00 1 1019.4
20210624000121 84 92 0.0 1.0 0.00 0.00 0.00 1 1019.4
20210623234735 84 104 0.0 4.0 0.00 0.00 0.00 1 1019.6
20210623233059 85 112 0.0 4.0 0.00 0.00 0.00 1 1019.6
20210623231608 88 127 0.0 3.0 0.00 0.00 0.00 23 1019.3
20210623230047 90 252 0.0 1.0 0.00 0.00 0.00 40 1019.1
20210623224604 91 276 0.0 1.0 0.00 0.00 0.00 40 1018.9
20210623223049 93 301 0.0 2.0 0.00 0.00 0.00 38 1018.7
20210623221525 93 302 0.0 2.0 0.00 0.00 0.00 38 1018.8
20210623220019 93 301 0.0 1.0 0.00 0.00 0.00 38 1018.7
20210623214534 92 274 0.0 2.0 0.00 0.00 0.00 38 1018.8
20210623213028 92 264 0.0 3.0 0.00 0.00 0.00 38 1018.6
20210623211504 92 275 1.0 4.0 0.00 0.00 0.00 38 1018.6
20210623210136 92 281 1.0 4.0 0.00 0.00 0.00 38 1018.2
20210623204643 92 286 0.0 4.0 0.00 0.00 0.00 38 1018.1
20210623203111 92 325 1.0 4.0 0.00 0.00 0.00 37 1018.1